sensor_id;sensor_type;location;lat;lon;timestamp;P1;durP1;ratioP1;P2;durP2;ratioP2
3939;SDS011;1984;48.312;9.244;2022-11-14T00:00:40;14.43;;;6.30;;
3939;SDS011;1984;48.312;9.244;2022-11-14T00:03:07;14.13;;;6.00;;
3939;SDS011;1984;48.312;9.244;2022-11-14T00:05:37;13.93;;;5.67;;
3939;SDS011;1984;48.312;9.244;2022-11-14T00:08:13;10.23;;;6.20;;
3939;SDS011;1984;48.312;9.244;2022-11-14T00:10:46;12.50;;;6.20;;
3939;SDS011;1984;48.312;9.244;2022-11-14T00:13:13;32.23;;;6.43;;
3939;SDS011;1984;48.312;9.244;2022-11-14T00:15:40;16.53;;;6.93;;
3939;SDS011;1984;48.312;9.244;2022-11-14T00:18:05;14.90;;;6.97;;
3939;SDS011;1984;48.312;9.244;2022-11-14T00:20:31;10.70;;;5.73;;
3939;SDS011;1984;48.312;9.244;2022-11-14T00:22:57;9.33;;;5.33;;
3939;SDS011;1984;48.312;9.244;2022-11-14T00:25:22;11.27;;;6.10;;
3939;SDS011;1984;48.312;9.244;2022-11-14T00:27:48;21.50;;;6.40;;
3939;SDS011;1984;48.312;9.244;2022-11-14T00:30:13;8.33;;;6.40;;
3939;SDS011;1984;48.312;9.244;2022-11-14T00:32:39;6.63;;;5.17;;
3939;SDS011;1984;48.312;9.244;2022-11-14T00:35:05;31.07;;;6.90;;
3939;SDS011;1984;48.312;9.244;2022-11-14T00:37:33;10.30;;;6.10;;
3939;SDS011;1984;48.312;9.244;2022-11-14T00:39:58;26.37;;;6.67;;
3939;SDS011;1984;48.312;9.244;2022-11-14T00:42:24;21.00;;;6.50;;
3939;SDS011;1984;48.312;9.244;2022-11-14T00:44:49;11.43;;;6.17;;
3939;SDS011;1984;48.312;9.244;2022-11-14T00:47:15;7.33;;;5.90;;
3939;SDS011;1984;48.312;9.244;2022-11-14T00:49:40;14.73;;;7.03;;
3939;SDS011;1984;48.312;9.244;2022-11-14T00:52:06;9.63;;;5.53;;
3939;SDS011;1984;48.312;9.244;2022-11-14T00:54:32;16.13;;;6.27;;
3939;SDS011;1984;48.312;9.244;2022-11-14T00:56:57;9.43;;;6.07;;
3939;SDS011;1984;48.312;9.244;2022-11-14T00:59:23;73.63;;;6.53;;
3939;SDS011;1984;48.312;9.244;2022-11-14T01:01:49;17.53;;;5.90;;
3939;SDS011;1984;48.312;9.244;2022-11-14T01:04:14;10.90;;;6.33;;
3939;SDS011;1984;48.312;9.244;2022-11-14T01:06:40;12.33;;;6.57;;
3939;SDS011;1984;48.312;9.244;2022-11-14T01:09:05;25.03;;;7.47;;
3939;SDS011;1984;48.312;9.244;2022-11-14T01:11:31;22.77;;;7.03;;
3939;SDS011;1984;48.312;9.244;2022-11-14T01:13:56;7.93;;;5.50;;
3939;SDS011;1984;48.312;9.244;2022-11-14T01:16:22;18.33;;;6.77;;
3939;SDS011;1984;48.312;9.244;2022-11-14T01:18:47;33.53;;;7.60;;
3939;SDS011;1984;48.312;9.244;2022-11-14T01:21:13;9.33;;;6.07;;
3939;SDS011;1984;48.312;9.244;2022-11-14T01:23:39;27.73;;;6.87;;
3939;SDS011;1984;48.312;9.244;2022-11-14T01:26:09;11.53;;;6.23;;
3939;SDS011;1984;48.312;9.244;2022-11-14T01:28:38;10.67;;;5.70;;
3939;SDS011;1984;48.312;9.244;2022-11-14T01:33:37;11.80;;;6.00;;
3939;SDS011;1984;48.312;9.244;2022-11-14T01:36:03;15.93;;;5.70;;
3939;SDS011;1984;48.312;9.244;2022-11-14T01:38:30;7.67;;;5.70;;
3939;SDS011;1984;48.312;9.244;2022-11-14T01:40:55;21.87;;;5.97;;
3939;SDS011;1984;48.312;9.244;2022-11-14T01:43:22;5.80;;;4.97;;
3939;SDS011;1984;48.312;9.244;2022-11-14T01:45:59;14.70;;;5.83;;
3939;SDS011;1984;48.312;9.244;2022-11-14T01:51:12;9.40;;;5.30;;
3939;SDS011;1984;48.312;9.244;2022-11-14T01:53:50;6.30;;;5.00;;
3939;SDS011;1984;48.312;9.244;2022-11-14T01:56:20;6.57;;;4.67;;
3939;SDS011;1984;48.312;9.244;2022-11-14T01:58:58;10.90;;;5.27;;
3939;SDS011;1984;48.312;9.244;2022-11-14T02:01:32;12.17;;;5.10;;
3939;SDS011;1984;48.312;9.244;2022-11-14T02:04:00;9.90;;;4.60;;
3939;SDS011;1984;48.312;9.244;2022-11-14T02:06:28;6.37;;;5.53;;
3939;SDS011;1984;48.312;9.244;2022-11-14T02:08:55;8.90;;;4.77;;
3939;SDS011;1984;48.312;9.244;2022-11-14T02:11:23;27.17;;;6.00;;
3939;SDS011;1984;48.312;9.244;2022-11-14T02:13:52;7.67;;;5.23;;
3939;SDS011;1984;48.312;9.244;2022-11-14T02:16:18;9.37;;;6.10;;
3939;SDS011;1984;48.312;9.244;2022-11-14T02:18:44;11.30;;;5.07;;
3939;SDS011;1984;48.312;9.244;2022-11-14T02:21:09;13.43;;;5.10;;
3939;SDS011;1984;48.312;9.244;2022-11-14T02:23:35;21.23;;;5.77;;
3939;SDS011;1984;48.312;9.244;2022-11-14T02:26:00;12.63;;;6.23;;
3939;SDS011;1984;48.312;9.244;2022-11-14T02:28:26;14.33;;;6.73;;
3939;SDS011;1984;48.312;9.244;2022-11-14T02:30:52;10.20;;;5.73;;
3939;SDS011;1984;48.312;9.244;2022-11-14T02:33:17;8.00;;;6.27;;
3939;SDS011;1984;48.312;9.244;2022-11-14T02:35:43;7.97;;;5.47;;
3939;SDS011;1984;48.312;9.244;2022-11-14T02:38:09;18.97;;;6.53;;
3939;SDS011;1984;48.312;9.244;2022-11-14T02:40:34;8.47;;;5.33;;
3939;SDS011;1984;48.312;9.244;2022-11-14T02:43:00;9.43;;;5.73;;
3939;SDS011;1984;48.312;9.244;2022-11-14T02:45:25;69.03;;;7.30;;
3939;SDS011;1984;48.312;9.244;2022-11-14T02:47:51;16.00;;;6.07;;
3939;SDS011;1984;48.312;9.244;2022-11-14T02:50:17;10.60;;;7.23;;
3939;SDS011;1984;48.312;9.244;2022-11-14T02:52:42;41.20;;;7.70;;
3939;SDS011;1984;48.312;9.244;2022-11-14T02:55:08;22.13;;;7.20;;
3939;SDS011;1984;48.312;9.244;2022-11-14T02:57:34;17.73;;;7.00;;
3939;SDS011;1984;48.312;9.244;2022-11-14T03:00:00;57.43;;;7.60;;
3939;SDS011;1984;48.312;9.244;2022-11-14T03:02:26;29.63;;;6.97;;
3939;SDS011;1984;48.312;9.244;2022-11-14T03:04:51;19.47;;;7.10;;
3939;SDS011;1984;48.312;9.244;2022-11-14T03:07:17;27.17;;;6.30;;
3939;SDS011;1984;48.312;9.244;2022-11-14T03:09:42;30.43;;;7.20;;
3939;SDS011;1984;48.312;9.244;2022-11-14T03:12:08;17.83;;;7.23;;
3939;SDS011;1984;48.312;9.244;2022-11-14T03:14:34;9.33;;;6.23;;
3939;SDS011;1984;48.312;9.244;2022-11-14T03:16:59;38.53;;;7.70;;
3939;SDS011;1984;48.312;9.244;2022-11-14T03:19:25;26.07;;;5.90;;
3939;SDS011;1984;48.312;9.244;2022-11-14T03:21:51;18.20;;;7.13;;
3939;SDS011;1984;48.312;9.244;2022-11-14T03:24:16;18.13;;;7.53;;
3939;SDS011;1984;48.312;9.244;2022-11-14T03:26:42;38.63;;;7.77;;
3939;SDS011;1984;48.312;9.244;2022-11-14T03:29:07;20.83;;;8.57;;
3939;SDS011;1984;48.312;9.244;2022-11-14T03:31:33;41.30;;;9.50;;
3939;SDS011;1984;48.312;9.244;2022-11-14T03:33:58;18.73;;;7.30;;
3939;SDS011;1984;48.312;9.244;2022-11-14T03:36:24;28.03;;;8.37;;
3939;SDS011;1984;48.312;9.244;2022-11-14T03:38:50;12.60;;;7.50;;
3939;SDS011;1984;48.312;9.244;2022-11-14T03:41:15;11.67;;;7.60;;
3939;SDS011;1984;48.312;9.244;2022-11-14T03:43:41;14.20;;;7.80;;
3939;SDS011;1984;48.312;9.244;2022-11-14T03:46:06;12.67;;;7.10;;
3939;SDS011;1984;48.312;9.244;2022-11-14T03:48:32;12.20;;;7.37;;
3939;SDS011;1984;48.312;9.244;2022-11-14T03:50:57;12.93;;;8.07;;
3939;SDS011;1984;48.312;9.244;2022-11-14T03:53:23;13.27;;;8.43;;
3939;SDS011;1984;48.312;9.244;2022-11-14T03:55:49;21.33;;;8.40;;
3939;SDS011;1984;48.312;9.244;2022-11-14T03:58:16;11.80;;;7.93;;
3939;SDS011;1984;48.312;9.244;2022-11-14T04:00:41;17.07;;;9.07;;
3939;SDS011;1984;48.312;9.244;2022-11-14T04:03:07;10.53;;;6.63;;
3939;SDS011;1984;48.312;9.244;2022-11-14T04:05:33;11.97;;;7.50;;
3939;SDS011;1984;48.312;9.244;2022-11-14T04:07:58;12.57;;;7.67;;
3939;SDS011;1984;48.312;9.244;2022-11-14T04:10:24;14.40;;;8.73;;
3939;SDS011;1984;48.312;9.244;2022-11-14T04:12:50;18.33;;;9.40;;
3939;SDS011;1984;48.312;9.244;2022-11-14T04:15:16;15.63;;;8.80;;
3939;SDS011;1984;48.312;9.244;2022-11-14T04:17:43;15.10;;;9.00;;
3939;SDS011;1984;48.312;9.244;2022-11-14T04:20:09;12.17;;;7.13;;
3939;SDS011;1984;48.312;9.244;2022-11-14T04:22:36;17.40;;;9.27;;
3939;SDS011;1984;48.312;9.244;2022-11-14T04:25:01;16.77;;;9.73;;
3939;SDS011;1984;48.312;9.244;2022-11-14T04:27:27;17.00;;;8.87;;
3939;SDS011;1984;48.312;9.244;2022-11-14T04:29:53;30.90;;;11.97;;
3939;SDS011;1984;48.312;9.244;2022-11-14T04:32:18;24.50;;;11.00;;
3939;SDS011;1984;48.312;9.244;2022-11-14T04:34:44;20.47;;;10.70;;
3939;SDS011;1984;48.312;9.244;2022-11-14T04:37:09;40.23;;;9.80;;
3939;SDS011;1984;48.312;9.244;2022-11-14T04:39:35;19.53;;;11.30;;
3939;SDS011;1984;48.312;9.244;2022-11-14T04:42:00;19.70;;;11.27;;
3939;SDS011;1984;48.312;9.244;2022-11-14T04:44:26;20.00;;;9.97;;
3939;SDS011;1984;48.312;9.244;2022-11-14T04:46:51;17.30;;;8.33;;
3939;SDS011;1984;48.312;9.244;2022-11-14T04:49:17;25.60;;;10.37;;
3939;SDS011;1984;48.312;9.244;2022-11-14T04:51:42;16.90;;;10.17;;
3939;SDS011;1984;48.312;9.244;2022-11-14T04:54:08;22.27;;;8.80;;
3939;SDS011;1984;48.312;9.244;2022-11-14T04:56:33;17.80;;;10.67;;
3939;SDS011;1984;48.312;9.244;2022-11-14T04:58:59;18.10;;;9.90;;
3939;SDS011;1984;48.312;9.244;2022-11-14T05:01:24;27.03;;;11.30;;
3939;SDS011;1984;48.312;9.244;2022-11-14T05:03:50;18.50;;;9.80;;
3939;SDS011;1984;48.312;9.244;2022-11-14T05:06:15;22.17;;;11.47;;
3939;SDS011;1984;48.312;9.244;2022-11-14T05:08:41;19.10;;;10.47;;
3939;SDS011;1984;48.312;9.244;2022-11-14T05:11:11;18.70;;;10.07;;
3939;SDS011;1984;48.312;9.244;2022-11-14T05:13:38;21.53;;;10.17;;
3939;SDS011;1984;48.312;9.244;2022-11-14T05:16:03;19.00;;;10.20;;
3939;SDS011;1984;48.312;9.244;2022-11-14T05:18:29;21.63;;;10.97;;
3939;SDS011;1984;48.312;9.244;2022-11-14T05:20:56;18.00;;;10.43;;
3939;SDS011;1984;48.312;9.244;2022-11-14T05:23:23;21.50;;;10.90;;
3939;SDS011;1984;48.312;9.244;2022-11-14T05:26:05;21.70;;;10.13;;
3939;SDS011;1984;48.312;9.244;2022-11-14T05:28:32;18.83;;;9.43;;
3939;SDS011;1984;48.312;9.244;2022-11-14T05:31:02;33.43;;;12.93;;
3939;SDS011;1984;48.312;9.244;2022-11-14T05:33:32;30.07;;;12.30;;
3939;SDS011;1984;48.312;9.244;2022-11-14T05:36:06;25.67;;;11.50;;
3939;SDS011;1984;48.312;9.244;2022-11-14T05:38:36;26.50;;;11.70;;
3939;SDS011;1984;48.312;9.244;2022-11-14T05:41:05;48.77;;;13.27;;
3939;SDS011;1984;48.312;9.244;2022-11-14T05:43:31;21.27;;;11.70;;
3939;SDS011;1984;48.312;9.244;2022-11-14T05:45:58;37.17;;;13.33;;
3939;SDS011;1984;48.312;9.244;2022-11-14T05:48:27;28.37;;;11.60;;
3939;SDS011;1984;48.312;9.244;2022-11-14T05:50:54;22.93;;;12.33;;
3939;SDS011;1984;48.312;9.244;2022-11-14T05:53:20;27.50;;;12.90;;
3939;SDS011;1984;48.312;9.244;2022-11-14T05:55:46;31.80;;;12.77;;
3939;SDS011;1984;48.312;9.244;2022-11-14T05:58:11;19.97;;;11.87;;
3939;SDS011;1984;48.312;9.244;2022-11-14T06:00:37;24.57;;;12.03;;
3939;SDS011;1984;48.312;9.244;2022-11-14T06:03:02;36.30;;;13.50;;
3939;SDS011;1984;48.312;9.244;2022-11-14T06:05:28;25.30;;;13.43;;
3939;SDS011;1984;48.312;9.244;2022-11-14T06:07:54;22.33;;;12.80;;
3939;SDS011;1984;48.312;9.244;2022-11-14T06:10:21;29.00;;;13.60;;
3939;SDS011;1984;48.312;9.244;2022-11-14T06:12:47;23.97;;;12.80;;
3939;SDS011;1984;48.312;9.244;2022-11-14T06:15:13;22.10;;;12.40;;
3939;SDS011;1984;48.312;9.244;2022-11-14T06:17:38;21.20;;;11.80;;
3939;SDS011;1984;48.312;9.244;2022-11-14T06:20:04;27.47;;;13.03;;
3939;SDS011;1984;48.312;9.244;2022-11-14T06:22:30;24.33;;;12.63;;
3939;SDS011;1984;48.312;9.244;2022-11-14T06:24:57;31.10;;;14.33;;
3939;SDS011;1984;48.312;9.244;2022-11-14T06:27:22;23.07;;;13.23;;
3939;SDS011;1984;48.312;9.244;2022-11-14T06:29:48;22.67;;;13.00;;
3939;SDS011;1984;48.312;9.244;2022-11-14T06:32:13;25.20;;;12.60;;
3939;SDS011;1984;48.312;9.244;2022-11-14T06:34:39;25.77;;;12.87;;
3939;SDS011;1984;48.312;9.244;2022-11-14T06:37:04;20.73;;;12.17;;
3939;SDS011;1984;48.312;9.244;2022-11-14T06:39:30;22.40;;;11.60;;
3939;SDS011;1984;48.312;9.244;2022-11-14T06:41:55;20.90;;;11.73;;
3939;SDS011;1984;48.312;9.244;2022-11-14T06:44:21;23.30;;;12.73;;
3939;SDS011;1984;48.312;9.244;2022-11-14T06:46:46;25.30;;;15.30;;
3939;SDS011;1984;48.312;9.244;2022-11-14T06:49:12;19.40;;;11.60;;
3939;SDS011;1984;48.312;9.244;2022-11-14T06:51:37;24.17;;;13.10;;
3939;SDS011;1984;48.312;9.244;2022-11-14T06:54:03;20.17;;;12.10;;
3939;SDS011;1984;48.312;9.244;2022-11-14T06:56:28;21.27;;;12.27;;
3939;SDS011;1984;48.312;9.244;2022-11-14T06:58:54;20.77;;;12.20;;
3939;SDS011;1984;48.312;9.244;2022-11-14T07:01:21;17.10;;;10.83;;
3939;SDS011;1984;48.312;9.244;2022-11-14T07:03:50;20.03;;;11.70;;
3939;SDS011;1984;48.312;9.244;2022-11-14T07:06:17;20.57;;;12.77;;
3939;SDS011;1984;48.312;9.244;2022-11-14T07:08:45;21.63;;;12.37;;
3939;SDS011;1984;48.312;9.244;2022-11-14T07:11:12;14.03;;;8.57;;
3939;SDS011;1984;48.312;9.244;2022-11-14T07:13:56;15.57;;;9.60;;
3939;SDS011;1984;48.312;9.244;2022-11-14T07:16:24;17.43;;;9.33;;
3939;SDS011;1984;48.312;9.244;2022-11-14T07:18:55;20.43;;;11.13;;
3939;SDS011;1984;48.312;9.244;2022-11-14T07:21:24;20.50;;;10.90;;
3939;SDS011;1984;48.312;9.244;2022-11-14T07:23:51;19.43;;;10.90;;
3939;SDS011;1984;48.312;9.244;2022-11-14T07:26:17;18.90;;;11.17;;
3939;SDS011;1984;48.312;9.244;2022-11-14T07:28:43;19.80;;;11.70;;
3939;SDS011;1984;48.312;9.244;2022-11-14T07:31:10;23.03;;;11.27;;
3939;SDS011;1984;48.312;9.244;2022-11-14T07:33:38;20.63;;;11.90;;
3939;SDS011;1984;48.312;9.244;2022-11-14T07:36:04;18.63;;;10.70;;
3939;SDS011;1984;48.312;9.244;2022-11-14T07:38:31;18.73;;;10.60;;
3939;SDS011;1984;48.312;9.244;2022-11-14T07:40:58;20.00;;;11.93;;
3939;SDS011;1984;48.312;9.244;2022-11-14T07:43:25;21.00;;;10.93;;
3939;SDS011;1984;48.312;9.244;2022-11-14T07:45:51;23.93;;;11.60;;
3939;SDS011;1984;48.312;9.244;2022-11-14T07:48:17;24.17;;;11.17;;
3939;SDS011;1984;48.312;9.244;2022-11-14T07:50:43;19.07;;;10.77;;
3939;SDS011;1984;48.312;9.244;2022-11-14T07:53:09;16.43;;;9.70;;
3939;SDS011;1984;48.312;9.244;2022-11-14T07:55:35;15.63;;;7.17;;
3939;SDS011;1984;48.312;9.244;2022-11-14T07:58:01;12.27;;;7.70;;
3939;SDS011;1984;48.312;9.244;2022-11-14T08:00:27;9.83;;;6.33;;
3939;SDS011;1984;48.312;9.244;2022-11-14T08:02:52;11.00;;;5.70;;
3939;SDS011;1984;48.312;9.244;2022-11-14T08:05:18;9.47;;;5.57;;
3939;SDS011;1984;48.312;9.244;2022-11-14T08:07:43;10.73;;;6.27;;
3939;SDS011;1984;48.312;9.244;2022-11-14T08:10:10;7.93;;;5.37;;
3939;SDS011;1984;48.312;9.244;2022-11-14T08:12:37;13.37;;;4.73;;
3939;SDS011;1984;48.312;9.244;2022-11-14T08:15:06;12.73;;;4.87;;
3939;SDS011;1984;48.312;9.244;2022-11-14T08:17:33;6.13;;;3.47;;
3939;SDS011;1984;48.312;9.244;2022-11-14T08:19:58;4.57;;;3.47;;
3939;SDS011;1984;48.312;9.244;2022-11-14T08:22:24;6.70;;;4.37;;
3939;SDS011;1984;48.312;9.244;2022-11-14T08:24:49;4.60;;;3.07;;
3939;SDS011;1984;48.312;9.244;2022-11-14T08:27:15;4.83;;;3.73;;
3939;SDS011;1984;48.312;9.244;2022-11-14T08:29:40;4.80;;;4.07;;
3939;SDS011;1984;48.312;9.244;2022-11-14T08:32:06;5.70;;;3.63;;
3939;SDS011;1984;48.312;9.244;2022-11-14T08:34:31;4.60;;;3.60;;
3939;SDS011;1984;48.312;9.244;2022-11-14T08:36:57;6.80;;;4.20;;
3939;SDS011;1984;48.312;9.244;2022-11-14T08:39:23;4.70;;;3.93;;
3939;SDS011;1984;48.312;9.244;2022-11-14T08:41:48;6.27;;;5.07;;
3939;SDS011;1984;48.312;9.244;2022-11-14T08:44:14;5.07;;;4.23;;
3939;SDS011;1984;48.312;9.244;2022-11-14T08:46:39;4.80;;;4.00;;
3939;SDS011;1984;48.312;9.244;2022-11-14T08:49:05;9.73;;;4.50;;
3939;SDS011;1984;48.312;9.244;2022-11-14T08:51:30;8.70;;;3.87;;
3939;SDS011;1984;48.312;9.244;2022-11-14T08:53:56;6.53;;;3.00;;
3939;SDS011;1984;48.312;9.244;2022-11-14T08:56:21;4.23;;;3.20;;
3939;SDS011;1984;48.312;9.244;2022-11-14T08:58:47;2.77;;;2.40;;
3939;SDS011;1984;48.312;9.244;2022-11-14T09:01:13;4.20;;;2.97;;
3939;SDS011;1984;48.312;9.244;2022-11-14T09:03:38;2.30;;;2.10;;
3939;SDS011;1984;48.312;9.244;2022-11-14T09:06:04;2.47;;;2.27;;
3939;SDS011;1984;48.312;9.244;2022-11-14T09:08:29;4.23;;;3.10;;
3939;SDS011;1984;48.312;9.244;2022-11-14T09:10:58;10.33;;;4.07;;
3939;SDS011;1984;48.312;9.244;2022-11-14T09:13:25;7.93;;;4.50;;
3939;SDS011;1984;48.312;9.244;2022-11-14T09:15:51;3.63;;;3.30;;
3939;SDS011;1984;48.312;9.244;2022-11-14T09:18:16;3.20;;;2.10;;
3939;SDS011;1984;48.312;9.244;2022-11-14T09:20:42;4.30;;;2.13;;
3939;SDS011;1984;48.312;9.244;2022-11-14T09:23:08;8.47;;;3.37;;
3939;SDS011;1984;48.312;9.244;2022-11-14T09:25:34;3.43;;;3.13;;
3939;SDS011;1984;48.312;9.244;2022-11-14T09:28:04;4.40;;;3.10;;
3939;SDS011;1984;48.312;9.244;2022-11-14T09:30:33;2.03;;;1.80;;
3939;SDS011;1984;48.312;9.244;2022-11-14T09:33:00;3.07;;;2.87;;
3939;SDS011;1984;48.312;9.244;2022-11-14T09:35:28;2.33;;;2.23;;
3939;SDS011;1984;48.312;9.244;2022-11-14T09:38:05;4.70;;;3.30;;
3939;SDS011;1984;48.312;9.244;2022-11-14T09:40:37;4.47;;;2.97;;
3939;SDS011;1984;48.312;9.244;2022-11-14T09:45:51;3.07;;;2.40;;
3939;SDS011;1984;48.312;9.244;2022-11-14T09:48:21;3.40;;;2.37;;
3939;SDS011;1984;48.312;9.244;2022-11-14T09:51:05;5.47;;;3.17;;
3939;SDS011;1984;48.312;9.244;2022-11-14T09:53:58;2.27;;;2.10;;
3939;SDS011;1984;48.312;9.244;2022-11-14T09:56:40;2.77;;;2.40;;
3939;SDS011;1984;48.312;9.244;2022-11-14T09:59:12;4.53;;;2.30;;
3939;SDS011;1984;48.312;9.244;2022-11-14T10:04:19;3.20;;;2.93;;
3939;SDS011;1984;48.312;9.244;2022-11-14T10:15:31;3.50;;;2.90;;
3939;SDS011;1984;48.312;9.244;2022-11-14T10:27:01;5.30;;;4.10;;
3939;SDS011;1984;48.312;9.244;2022-11-14T10:32:13;6.57;;;3.93;;
3939;SDS011;1984;48.312;9.244;2022-11-14T10:37:36;8.00;;;4.60;;
3939;SDS011;1984;48.312;9.244;2022-11-14T10:40:23;7.83;;;4.40;;
3939;SDS011;1984;48.312;9.244;2022-11-14T10:43:45;4.30;;;3.47;;
3939;SDS011;1984;48.312;9.244;2022-11-14T10:46:01;9.13;;;4.87;;
3939;SDS011;1984;48.312;9.244;2022-11-14T10:48:42;3.40;;;2.80;;
3939;SDS011;1984;48.312;9.244;2022-11-14T10:51:17;6.00;;;4.07;;
3939;SDS011;1984;48.312;9.244;2022-11-14T10:56:24;5.17;;;3.70;;
3939;SDS011;1984;48.312;9.244;2022-11-14T10:58:50;5.20;;;3.20;;
3939;SDS011;1984;48.312;9.244;2022-11-14T11:06:54;3.30;;;3.00;;
3939;SDS011;1984;48.312;9.244;2022-11-14T11:09:22;3.43;;;3.10;;
3939;SDS011;1984;48.312;9.244;2022-11-14T11:12:13;3.40;;;2.90;;
3939;SDS011;1984;48.312;9.244;2022-11-14T11:14:40;3.70;;;3.20;;
3939;SDS011;1984;48.312;9.244;2022-11-14T11:17:17;3.70;;;3.30;;
3939;SDS011;1984;48.312;9.244;2022-11-14T11:19:44;4.90;;;3.80;;
3939;SDS011;1984;48.312;9.244;2022-11-14T11:22:22;6.17;;;3.40;;
3939;SDS011;1984;48.312;9.244;2022-11-14T11:24:48;3.40;;;3.10;;
3939;SDS011;1984;48.312;9.244;2022-11-14T11:27:24;5.60;;;3.70;;
3939;SDS011;1984;48.312;9.244;2022-11-14T11:32:32;3.63;;;2.97;;
3939;SDS011;1984;48.312;9.244;2022-11-14T11:34:57;3.50;;;3.17;;
3939;SDS011;1984;48.312;9.244;2022-11-14T11:37:27;4.10;;;3.43;;
3939;SDS011;1984;48.312;9.244;2022-11-14T11:39:58;3.33;;;3.03;;
3939;SDS011;1984;48.312;9.244;2022-11-14T11:42:30;4.23;;;3.23;;
3939;SDS011;1984;48.312;9.244;2022-11-14T11:45:13;7.37;;;3.00;;
3939;SDS011;1984;48.312;9.244;2022-11-14T11:47:42;5.80;;;3.40;;
3939;SDS011;1984;48.312;9.244;2022-11-14T11:50:16;3.63;;;3.10;;
3939;SDS011;1984;48.312;9.244;2022-11-14T11:57:42;6.97;;;3.50;;
3939;SDS011;1984;48.312;9.244;2022-11-14T12:00:13;5.67;;;4.07;;
3939;SDS011;1984;48.312;9.244;2022-11-14T12:02:49;5.50;;;4.20;;
3939;SDS011;1984;48.312;9.244;2022-11-14T12:05:17;4.73;;;3.50;;
3939;SDS011;1984;48.312;9.244;2022-11-14T12:08:05;3.17;;;2.87;;
3939;SDS011;1984;48.312;9.244;2022-11-14T12:10:36;4.43;;;3.13;;
3939;SDS011;1984;48.312;9.244;2022-11-14T12:18:51;3.57;;;2.80;;
3939;SDS011;1984;48.312;9.244;2022-11-14T12:27:04;4.30;;;2.80;;
3939;SDS011;1984;48.312;9.244;2022-11-14T12:30:00;5.30;;;3.00;;
3939;SDS011;1984;48.312;9.244;2022-11-14T12:32:42;2.97;;;2.67;;
3939;SDS011;1984;48.312;9.244;2022-11-14T12:35:21;4.03;;;3.03;;
3939;SDS011;1984;48.312;9.244;2022-11-14T12:37:54;4.40;;;2.90;;
3939;SDS011;1984;48.312;9.244;2022-11-14T12:40:31;2.80;;;2.60;;
3939;SDS011;1984;48.312;9.244;2022-11-14T12:43:10;3.63;;;2.40;;
3939;SDS011;1984;48.312;9.244;2022-11-14T12:46:10;2.80;;;2.60;;
3939;SDS011;1984;48.312;9.244;2022-11-14T12:51:05;5.87;;;2.53;;
3939;SDS011;1984;48.312;9.244;2022-11-14T12:53:54;2.70;;;2.50;;
3939;SDS011;1984;48.312;9.244;2022-11-14T12:58:58;3.20;;;2.90;;
3939;SDS011;1984;48.312;9.244;2022-11-14T13:07:18;3.83;;;2.70;;
3939;SDS011;1984;48.312;9.244;2022-11-14T13:09:56;3.67;;;3.07;;
3939;SDS011;1984;48.312;9.244;2022-11-14T13:12:33;3.90;;;3.10;;
3939;SDS011;1984;48.312;9.244;2022-11-14T13:15:20;4.37;;;2.77;;
3939;SDS011;1984;48.312;9.244;2022-11-14T13:18:11;2.30;;;2.10;;
3939;SDS011;1984;48.312;9.244;2022-11-14T13:24:08;4.73;;;2.73;;
3939;SDS011;1984;48.312;9.244;2022-11-14T13:26:35;2.70;;;2.43;;
3939;SDS011;1984;48.312;9.244;2022-11-14T13:29:02;2.40;;;2.20;;
3939;SDS011;1984;48.312;9.244;2022-11-14T13:40:12;2.03;;;1.77;;
3939;SDS011;1984;48.312;9.244;2022-11-14T13:50:56;3.77;;;3.07;;
3939;SDS011;1984;48.312;9.244;2022-11-14T13:53:28;2.40;;;2.20;;
3939;SDS011;1984;48.312;9.244;2022-11-14T13:55:59;3.47;;;2.27;;
3939;SDS011;1984;48.312;9.244;2022-11-14T13:58:37;5.60;;;2.07;;
3939;SDS011;1984;48.312;9.244;2022-11-14T14:12:26;5.30;;;4.33;;
3939;SDS011;1984;48.312;9.244;2022-11-14T14:15:28;12.13;;;4.50;;
3939;SDS011;1984;48.312;9.244;2022-11-14T14:18:08;5.60;;;3.93;;
3939;SDS011;1984;48.312;9.244;2022-11-14T14:30:05;2.80;;;2.37;;
3939;SDS011;1984;48.312;9.244;2022-11-14T14:32:36;7.80;;;3.60;;
3939;SDS011;1984;48.312;9.244;2022-11-14T14:37:50;5.40;;;3.83;;
3939;SDS011;1984;48.312;9.244;2022-11-14T14:40:32;2.40;;;2.03;;
3939;SDS011;1984;48.312;9.244;2022-11-14T14:43:02;3.17;;;2.67;;
3939;SDS011;1984;48.312;9.244;2022-11-14T14:45:29;3.40;;;2.70;;
3939;SDS011;1984;48.312;9.244;2022-11-14T14:48:04;11.23;;;3.60;;
3939;SDS011;1984;48.312;9.244;2022-11-14T14:50:38;4.97;;;3.57;;
3939;SDS011;1984;48.312;9.244;2022-11-14T14:53:06;6.83;;;4.70;;
3939;SDS011;1984;48.312;9.244;2022-11-14T14:55:53;4.23;;;3.00;;
3939;SDS011;1984;48.312;9.244;2022-11-14T15:00:53;3.23;;;2.63;;
3939;SDS011;1984;48.312;9.244;2022-11-14T15:03:25;6.47;;;4.40;;
3939;SDS011;1984;48.312;9.244;2022-11-14T15:05:57;4.17;;;3.13;;
3939;SDS011;1984;48.312;9.244;2022-11-14T15:08:24;6.40;;;3.13;;
3939;SDS011;1984;48.312;9.244;2022-11-14T15:10:52;4.87;;;3.67;;
3939;SDS011;1984;48.312;9.244;2022-11-14T15:13:21;5.53;;;3.83;;
3939;SDS011;1984;48.312;9.244;2022-11-14T15:15:49;7.10;;;4.20;;
3939;SDS011;1984;48.312;9.244;2022-11-14T15:18:36;4.30;;;2.90;;
3939;SDS011;1984;48.312;9.244;2022-11-14T15:23:56;3.80;;;3.40;;
3939;SDS011;1984;48.312;9.244;2022-11-14T15:26:43;4.47;;;3.27;;
3939;SDS011;1984;48.312;9.244;2022-11-14T15:29:17;5.03;;;2.90;;
3939;SDS011;1984;48.312;9.244;2022-11-14T15:31:49;3.90;;;3.00;;
3939;SDS011;1984;48.312;9.244;2022-11-14T15:34:22;5.83;;;3.43;;
3939;SDS011;1984;48.312;9.244;2022-11-14T15:39:38;4.30;;;3.57;;
3939;SDS011;1984;48.312;9.244;2022-11-14T15:42:15;3.73;;;3.27;;
3939;SDS011;1984;48.312;9.244;2022-11-14T15:44:49;3.60;;;3.07;;
3939;SDS011;1984;48.312;9.244;2022-11-14T15:47:22;3.50;;;3.00;;
3939;SDS011;1984;48.312;9.244;2022-11-14T15:50:02;5.57;;;3.40;;
3939;SDS011;1984;48.312;9.244;2022-11-14T15:52:54;7.20;;;4.83;;
3939;SDS011;1984;48.312;9.244;2022-11-14T15:55:28;3.87;;;3.37;;
3939;SDS011;1984;48.312;9.244;2022-11-14T15:57:53;5.33;;;3.87;;
3939;SDS011;1984;48.312;9.244;2022-11-14T16:00:19;4.83;;;3.67;;
3939;SDS011;1984;48.312;9.244;2022-11-14T16:02:47;7.40;;;3.83;;
3939;SDS011;1984;48.312;9.244;2022-11-14T16:05:23;8.50;;;5.07;;
3939;SDS011;1984;48.312;9.244;2022-11-14T16:07:51;7.50;;;5.07;;
3939;SDS011;1984;48.312;9.244;2022-11-14T16:10:18;12.70;;;5.13;;
3939;SDS011;1984;48.312;9.244;2022-11-14T16:12:48;6.43;;;5.00;;
3939;SDS011;1984;48.312;9.244;2022-11-14T16:15:14;11.97;;;6.33;;
3939;SDS011;1984;48.312;9.244;2022-11-14T16:17:41;18.03;;;7.37;;
3939;SDS011;1984;48.312;9.244;2022-11-14T16:20:12;6.30;;;4.90;;
3939;SDS011;1984;48.312;9.244;2022-11-14T16:22:44;9.00;;;4.43;;
3939;SDS011;1984;48.312;9.244;2022-11-14T16:25:18;5.57;;;4.00;;
3939;SDS011;1984;48.312;9.244;2022-11-14T16:27:48;5.40;;;4.20;;
3939;SDS011;1984;48.312;9.244;2022-11-14T16:30:15;7.63;;;4.87;;
3939;SDS011;1984;48.312;9.244;2022-11-14T16:32:42;9.17;;;6.10;;
3939;SDS011;1984;48.312;9.244;2022-11-14T16:35:12;14.27;;;8.23;;
3939;SDS011;1984;48.312;9.244;2022-11-14T16:37:40;12.43;;;6.77;;
3939;SDS011;1984;48.312;9.244;2022-11-14T16:40:06;10.00;;;7.60;;
3939;SDS011;1984;48.312;9.244;2022-11-14T16:42:39;11.37;;;6.07;;
3939;SDS011;1984;48.312;9.244;2022-11-14T16:45:04;16.07;;;7.70;;
3939;SDS011;1984;48.312;9.244;2022-11-14T16:47:30;17.50;;;9.13;;
3939;SDS011;1984;48.312;9.244;2022-11-14T16:49:56;13.20;;;7.50;;
3939;SDS011;1984;48.312;9.244;2022-11-14T16:52:22;15.50;;;8.50;;
3939;SDS011;1984;48.312;9.244;2022-11-14T16:54:48;17.57;;;10.10;;
3939;SDS011;1984;48.312;9.244;2022-11-14T16:57:13;18.57;;;11.80;;
3939;SDS011;1984;48.312;9.244;2022-11-14T16:59:39;17.53;;;10.30;;
3939;SDS011;1984;48.312;9.244;2022-11-14T17:02:05;18.30;;;10.37;;
3939;SDS011;1984;48.312;9.244;2022-11-14T17:04:30;15.57;;;8.30;;
3939;SDS011;1984;48.312;9.244;2022-11-14T17:06:56;18.57;;;8.70;;
3939;SDS011;1984;48.312;9.244;2022-11-14T17:09:22;11.67;;;8.30;;
3939;SDS011;1984;48.312;9.244;2022-11-14T17:11:47;13.73;;;7.33;;
3939;SDS011;1984;48.312;9.244;2022-11-14T17:14:13;9.43;;;6.10;;
3939;SDS011;1984;48.312;9.244;2022-11-14T17:16:38;6.33;;;4.60;;
3939;SDS011;1984;48.312;9.244;2022-11-14T17:19:04;7.77;;;5.50;;